createdAt,value
2019-01-12T00:01:12.845Z,16.00
2019-01-12T00:03:42.342Z,20.20
2019-01-12T00:06:11.903Z,21.53
2019-01-12T00:08:41.310Z,9.67
2019-01-12T00:11:10.864Z,10.07
2019-01-12T00:13:40.259Z,16.80
2019-01-12T00:16:09.648Z,13.60
2019-01-12T00:18:39.381Z,14.37
2019-01-12T00:21:08.860Z,22.27
2019-01-12T00:23:38.265Z,14.07
2019-01-12T00:26:07.734Z,11.97
2019-01-12T00:28:38.146Z,18.37
2019-01-12T00:31:07.567Z,19.53
2019-01-12T00:33:36.961Z,27.50
2019-01-12T00:36:06.195Z,17.97
2019-01-12T00:38:35.775Z,16.87
2019-01-12T00:41:05.310Z,21.37
2019-01-12T00:43:34.723Z,10.83
2019-01-12T00:46:04.146Z,24.17
2019-01-12T00:48:33.521Z,29.13
2019-01-12T00:51:03.027Z,12.10
2019-01-12T00:53:32.560Z,20.77
2019-01-12T00:56:06.715Z,15.30
2019-01-12T00:58:36.360Z,14.57
2019-01-12T01:01:05.530Z,10.73
2019-01-12T01:03:34.532Z,17.17
2019-01-12T01:06:03.777Z,13.67
2019-01-12T01:08:32.866Z,8.90
2019-01-12T01:11:04.998Z,16.73
2019-01-12T01:13:34.638Z,20.03
2019-01-12T01:16:04.046Z,15.50
2019-01-12T01:18:33.355Z,9.07
2019-01-12T01:21:02.856Z,12.63
2019-01-12T01:23:32.267Z,14.50
2019-01-12T01:26:01.621Z,14.40
2019-01-12T01:28:31.142Z,11.57
2019-01-12T01:31:05.380Z,14.00
2019-01-12T01:33:34.746Z,18.67
2019-01-12T01:36:04.059Z,14.47
2019-01-12T01:38:33.423Z,18.93
2019-01-12T01:41:03.001Z,13.70
2019-01-12T01:43:32.400Z,12.37
2019-01-12T01:46:01.879Z,14.57
2019-01-12T01:48:31.406Z,17.70
2019-01-12T01:51:00.768Z,15.93
2019-01-12T01:53:31.952Z,12.77
2019-01-12T01:56:01.329Z,7.33
2019-01-12T01:58:30.630Z,11.53
2019-01-12T02:00:59.985Z,11.30
2019-01-12T02:03:29.362Z,10.77
2019-01-12T02:05:58.747Z,8.73
2019-01-12T02:08:28.194Z,12.03
2019-01-12T02:10:57.594Z,13.13
2019-01-12T02:13:26.895Z,8.63
2019-01-12T02:15:56.444Z,11.00
2019-01-12T02:18:26.283Z,10.50
2019-01-12T02:20:55.859Z,7.43
2019-01-12T02:23:25.402Z,10.77
2019-01-12T02:25:54.676Z,13.23
2019-01-12T02:28:24.142Z,14.07
2019-01-12T02:30:53.610Z,12.83
2019-01-12T02:33:22.945Z,14.33
2019-01-12T02:35:52.397Z,15.30
2019-01-12T02:38:21.819Z,13.13
2019-01-12T02:40:51.265Z,11.30
2019-01-12T02:43:20.564Z,16.43
2019-01-12T02:45:50.119Z,11.40
2019-01-12T02:48:19.492Z,13.83
2019-01-12T02:50:49.146Z,9.80
2019-01-12T02:53:18.678Z,13.93
2019-01-12T02:55:48.035Z,14.80
2019-01-12T02:58:18.383Z,17.60
2019-01-12T03:00:48.092Z,10.97
2019-01-12T03:03:17.532Z,17.83
2019-01-12T03:05:47.948Z,17.80
2019-01-12T03:08:17.288Z,14.27
2019-01-12T03:10:46.644Z,16.43
2019-01-12T03:13:16.120Z,12.23
2019-01-12T03:15:45.588Z,15.43
2019-01-12T03:18:15.133Z,18.30
2019-01-12T03:20:44.679Z,15.73
2019-01-12T03:23:14.175Z,15.60
2019-01-12T03:25:43.718Z,8.87
2019-01-12T03:28:13.122Z,15.30
2019-01-12T03:30:42.875Z,16.53
2019-01-12T03:33:12.375Z,15.33
2019-01-12T03:35:41.763Z,15.30
2019-01-12T03:38:11.379Z,13.33
2019-01-12T03:40:40.827Z,17.73
2019-01-12T03:43:10.359Z,20.97
2019-01-12T03:45:39.828Z,20.97
2019-01-12T03:48:09.220Z,21.47
2019-01-12T03:50:38.642Z,17.80
2019-01-12T03:53:08.018Z,18.17
2019-01-12T03:55:37.551Z,19.00
2019-01-12T03:58:06.879Z,16.27
2019-01-12T04:00:36.244Z,11.53
2019-01-12T04:03:05.883Z,18.40
2019-01-12T04:05:35.077Z,18.50
2019-01-12T04:08:04.513Z,21.93
2019-01-12T04:10:34.081Z,19.43
2019-01-12T04:13:03.612Z,21.30
2019-01-12T04:15:33.108Z,16.13
2019-01-12T04:18:02.680Z,21.23
2019-01-12T04:20:32.005Z,19.73
2019-01-12T04:23:01.430Z,18.77
2019-01-12T04:25:33.873Z,18.43
2019-01-12T04:28:02.056Z,19.60
2019-01-12T04:30:31.153Z,12.43
2019-01-12T04:33:00.451Z,20.77
2019-01-12T04:35:29.811Z,16.93
2019-01-12T04:37:58.933Z,19.20
2019-01-12T04:40:27.941Z,20.53
2019-01-12T04:42:57.366Z,21.10
2019-01-12T04:45:26.804Z,24.37
2019-01-12T04:47:56.342Z,22.13
2019-01-12T04:50:25.845Z,23.40
2019-01-12T04:52:55.143Z,21.40
2019-01-12T04:55:24.542Z,23.33
2019-01-12T04:57:53.974Z,24.80
2019-01-12T05:00:23.454Z,21.13
2019-01-12T05:02:53.071Z,24.80
2019-01-12T05:05:25.434Z,21.70
2019-01-12T05:07:54.761Z,23.37
2019-01-12T05:10:24.293Z,24.73
2019-01-12T05:12:53.939Z,25.43
2019-01-12T05:15:23.175Z,25.10
2019-01-12T05:17:52.705Z,24.17
2019-01-12T05:20:23.169Z,23.30
2019-01-12T05:22:52.435Z,23.30
2019-01-12T05:25:21.783Z,27.13
2019-01-12T05:27:51.368Z,25.87
2019-01-12T05:30:20.755Z,27.03
2019-01-12T05:32:50.178Z,27.43
2019-01-12T05:35:19.477Z,25.60
2019-01-12T05:37:48.793Z,24.30
2019-01-12T05:40:17.913Z,26.43
2019-01-12T05:42:47.224Z,23.57
2019-01-12T05:45:16.543Z,17.40
2019-01-12T05:47:45.878Z,23.93
2019-01-12T05:50:15.279Z,21.23
2019-01-12T05:52:44.731Z,27.00
2019-01-12T05:55:14.066Z,24.97
2019-01-12T05:57:43.378Z,27.17
2019-01-12T06:00:17.462Z,26.90
2019-01-12T06:02:46.853Z,29.37
2019-01-12T06:05:16.179Z,29.53
2019-01-12T06:07:45.525Z,24.73
2019-01-12T06:10:14.929Z,26.03
2019-01-12T06:12:44.295Z,31.30
2019-01-12T06:15:14.241Z,31.57
2019-01-12T06:17:43.778Z,25.40
2019-01-12T06:20:15.038Z,29.70
2019-01-12T06:22:44.795Z,26.83
2019-01-12T06:25:33.540Z,24.97
2019-01-12T06:28:02.865Z,25.70
2019-01-12T06:30:32.178Z,29.10
2019-01-12T06:33:01.666Z,33.20
2019-01-12T06:35:31.116Z,28.13
2019-01-12T06:38:00.420Z,28.33
2019-01-12T06:40:29.769Z,28.03
2019-01-12T06:42:59.069Z,27.87
2019-01-12T06:45:28.360Z,29.13
2019-01-12T06:47:57.694Z,28.43
2019-01-12T06:50:27.133Z,28.00
2019-01-12T06:52:56.585Z,28.17
2019-01-12T06:55:25.940Z,30.83
2019-01-12T06:57:55.302Z,35.10
2019-01-12T07:00:24.611Z,32.60
2019-01-12T07:02:54.020Z,32.57
2019-01-12T07:05:23.367Z,28.77
2019-01-12T07:07:52.924Z,29.97
2019-01-12T07:10:22.257Z,39.00
2019-01-12T07:12:51.718Z,35.70
2019-01-12T07:15:21.026Z,34.50
2019-01-12T07:17:50.326Z,34.53
2019-01-12T07:20:19.624Z,34.67
2019-01-12T07:22:49.173Z,36.53
2019-01-12T07:25:18.464Z,34.27
2019-01-12T07:27:47.767Z,30.03
2019-01-12T07:30:19.589Z,39.17
2019-01-12T07:32:49.037Z,34.70
2019-01-12T07:35:18.426Z,36.03
2019-01-12T07:37:50.800Z,36.37
2019-01-12T07:40:20.134Z,38.10
2019-01-12T07:42:50.516Z,40.63
2019-01-12T07:45:20.068Z,38.60
2019-01-12T07:47:49.626Z,34.93
2019-01-12T07:50:18.913Z,36.57
2019-01-12T07:52:48.306Z,36.63
2019-01-12T07:55:17.752Z,32.67
2019-01-12T07:57:47.054Z,32.87
2019-01-12T08:00:18.707Z,33.77
2019-01-12T08:02:48.006Z,34.00
2019-01-12T08:05:17.459Z,34.60
2019-01-12T08:07:46.796Z,32.13
2019-01-12T08:10:19.470Z,33.50
2019-01-12T08:12:48.803Z,34.87
2019-01-12T08:15:18.112Z,35.13
2019-01-12T08:17:48.496Z,32.40
2019-01-12T08:20:17.917Z,32.13
2019-01-12T08:22:47.311Z,30.40
2019-01-12T08:25:17.795Z,32.97
2019-01-12T08:27:47.566Z,31.70
2019-01-12T08:30:17.487Z,29.93
2019-01-12T08:32:46.788Z,29.67
2019-01-12T08:35:16.238Z,33.27
2019-01-12T08:37:45.590Z,31.83
2019-01-12T08:40:14.963Z,31.63
2019-01-12T08:42:44.267Z,30.03
2019-01-12T08:45:13.691Z,30.63
2019-01-12T08:47:43.055Z,30.67
2019-01-12T08:50:14.956Z,27.03
2019-01-12T08:52:44.313Z,29.17
2019-01-12T08:55:13.638Z,30.33
2019-01-12T08:57:42.993Z,29.57
2019-01-12T09:00:17.237Z,31.40
2019-01-12T09:02:46.579Z,30.93
2019-01-12T09:05:15.966Z,33.67
2019-01-12T09:07:45.272Z,31.90
2019-01-12T09:10:16.543Z,32.83
2019-01-12T09:12:45.898Z,27.83
2019-01-12T09:15:15.195Z,32.87
2019-01-12T09:17:44.535Z,32.47
2019-01-12T09:20:14.983Z,32.97
2019-01-12T09:22:44.648Z,31.43
2019-01-12T09:25:14.712Z,36.27
2019-01-12T09:27:44.960Z,32.17
2019-01-12T09:30:17.252Z,29.82
2019-01-12T09:32:46.756Z,32.80
2019-01-12T09:35:16.230Z,32.40
2019-01-12T09:37:45.516Z,34.20
2019-01-12T09:40:16.775Z,32.60
2019-01-12T09:42:46.182Z,30.27
2019-01-12T09:45:17.196Z,32.07
2019-01-12T09:47:46.586Z,34.47
2019-01-12T09:50:17.543Z,27.60
2019-01-12T09:52:47.036Z,31.17
2019-01-12T09:55:16.453Z,31.33
2019-01-12T09:57:46.306Z,30.05
2019-01-12T10:00:17.860Z,30.60
2019-01-12T10:02:47.314Z,29.03
2019-01-12T10:05:16.629Z,26.07
2019-01-12T10:07:45.980Z,28.70
2019-01-12T10:10:17.997Z,27.02
2019-01-12T10:12:47.406Z,23.50
2019-01-12T10:15:16.951Z,26.97
2019-01-12T10:17:48.422Z,27.60
2019-01-12T10:20:18.848Z,28.53
2019-01-12T10:22:48.161Z,26.13
2019-01-12T10:25:17.593Z,27.13
2019-01-12T10:27:47.782Z,27.07
2019-01-12T10:30:19.915Z,28.60
2019-01-12T10:32:49.290Z,30.43
2019-01-12T10:35:18.679Z,28.70
2019-01-12T10:37:48.027Z,26.30
2019-01-12T10:40:19.093Z,30.47
2019-01-12T10:42:49.081Z,28.07
2019-01-12T10:45:22.513Z,30.73
2019-01-12T10:47:52.345Z,29.23
2019-01-12T10:50:27.351Z,24.20
2019-01-12T10:52:57.364Z,27.40
2019-01-12T10:55:27.252Z,28.47
2019-01-12T10:57:57.450Z,28.17
2019-01-12T11:00:29.821Z,26.90
2019-01-12T11:02:59.169Z,25.23
2019-01-12T11:05:29.058Z,27.48
2019-01-12T11:07:58.948Z,17.65
2019-01-12T11:10:28.972Z,27.17
2019-01-12T11:12:59.005Z,27.25
2019-01-12T11:15:28.319Z,21.87
2019-01-12T11:17:57.798Z,26.40
2019-01-12T11:20:27.693Z,30.95
2019-01-12T11:22:57.750Z,29.00
2019-01-12T11:25:28.138Z,26.30
2019-01-12T11:27:57.695Z,28.53
2019-01-12T11:30:27.683Z,28.12
2019-01-12T11:32:57.074Z,23.62
2019-01-12T11:35:26.959Z,27.98
2019-01-12T11:37:56.354Z,26.33
2019-01-12T11:40:26.314Z,23.90
2019-01-12T11:42:56.235Z,26.68
2019-01-12T11:45:26.163Z,28.47
2019-01-12T11:47:56.140Z,34.27
2019-01-12T11:50:25.920Z,29.27
2019-01-12T11:52:57.373Z,26.52
2019-01-12T11:55:27.690Z,21.45
2019-01-12T11:57:57.627Z,28.25
2019-01-12T12:00:28.342Z,28.27
2019-01-12T12:02:57.843Z,28.85
2019-01-12T12:05:27.717Z,32.17
2019-01-12T12:07:57.095Z,32.33
2019-01-12T12:10:26.709Z,29.83
2019-01-12T12:12:56.607Z,24.67
2019-01-12T12:15:26.089Z,33.57
2019-01-12T12:17:56.051Z,35.20
2019-01-12T12:20:26.739Z,34.83
2019-01-12T12:22:56.675Z,29.05
2019-01-12T12:25:26.703Z,33.73
2019-01-12T12:27:56.819Z,31.00
2019-01-12T12:30:27.877Z,31.87
2019-01-12T12:32:58.130Z,31.17
2019-01-12T12:35:28.077Z,28.83
2019-01-12T12:37:57.969Z,29.27
2019-01-12T12:40:27.838Z,29.23
2019-01-12T12:42:57.920Z,31.07
2019-01-12T12:45:30.074Z,34.38
2019-01-12T12:48:00.080Z,30.08
2019-01-12T12:50:29.962Z,31.05
2019-01-12T12:52:59.912Z,33.83
2019-01-12T12:55:29.329Z,33.33
2019-01-12T12:57:59.254Z,34.38
2019-01-12T13:00:30.268Z,30.87
2019-01-12T13:03:00.302Z,27.10
2019-01-12T13:05:30.251Z,34.65
2019-01-12T13:08:00.129Z,35.40
2019-01-12T13:10:30.010Z,35.20
2019-01-12T13:12:59.894Z,32.55
2019-01-12T13:15:29.831Z,35.40
2019-01-12T13:17:59.748Z,34.73
2019-01-12T13:20:29.236Z,30.80
2019-01-12T13:22:59.114Z,32.58
2019-01-12T13:25:29.557Z,31.07
2019-01-12T13:27:59.099Z,29.73
2019-01-12T13:30:28.441Z,32.03
2019-01-12T13:32:57.892Z,29.30
2019-01-12T13:35:27.838Z,30.00
2019-01-12T13:37:57.271Z,22.27
2019-01-12T13:40:27.214Z,27.35
2019-01-12T13:42:56.582Z,26.20
2019-01-12T13:45:26.496Z,25.68
2019-01-12T13:47:56.391Z,25.20
2019-01-12T13:50:25.703Z,34.53
2019-01-12T13:52:55.004Z,25.00
2019-01-12T13:55:24.871Z,34.95
2019-01-12T13:57:54.207Z,36.83
2019-01-12T14:00:32.706Z,41.20
2019-01-12T14:03:02.106Z,38.57
2019-01-12T14:05:31.503Z,37.80
2019-01-12T14:08:01.398Z,39.65
2019-01-12T14:10:32.427Z,41.70
2019-01-12T14:13:02.444Z,35.05
2019-01-12T14:15:32.446Z,29.20
2019-01-12T14:18:02.449Z,26.95
2019-01-12T14:20:33.772Z,40.43
2019-01-12T14:23:03.171Z,29.93
2019-01-12T14:25:32.474Z,24.27
2019-01-12T14:28:01.808Z,39.07
2019-01-12T14:30:51.156Z,37.07
2019-01-12T14:33:21.562Z,41.17
2019-01-12T14:35:52.694Z,40.60
2019-01-12T14:38:22.208Z,39.07
2019-01-12T14:40:52.172Z,38.40
2019-01-12T14:43:21.549Z,38.63
2019-01-12T14:45:51.114Z,33.23
2019-01-12T14:48:20.427Z,29.60
2019-01-12T14:50:49.954Z,35.90
2019-01-12T14:53:19.255Z,28.83
2019-01-12T14:55:48.577Z,29.33
2019-01-12T14:58:17.981Z,24.83
2019-01-12T15:00:47.411Z,36.07
2019-01-12T15:03:16.868Z,26.53
2019-01-12T15:05:46.296Z,25.33
2019-01-12T15:08:15.575Z,34.77
2019-01-12T15:10:44.943Z,40.33
2019-01-12T15:13:14.902Z,37.83
2019-01-12T15:15:44.209Z,29.73
2019-01-12T15:18:37.078Z,32.57
2019-01-12T15:21:06.366Z,34.27
2019-01-12T15:23:35.671Z,28.83
2019-01-12T15:26:05.104Z,36.10
2019-01-12T15:28:34.425Z,28.00
2019-01-12T15:31:03.742Z,18.93
2019-01-12T15:33:34.023Z,29.67
2019-01-12T15:36:03.468Z,25.73
2019-01-12T15:38:32.765Z,25.30
2019-01-12T15:41:02.346Z,31.80
2019-01-12T15:43:31.652Z,24.83
2019-01-12T15:46:01.119Z,27.20
2019-01-12T15:48:31.124Z,18.75
2019-01-12T15:51:03.337Z,31.83
2019-01-12T15:53:33.282Z,33.78
2019-01-12T15:56:02.863Z,25.00
2019-01-12T15:58:32.403Z,24.93
2019-01-12T16:01:01.820Z,27.47
2019-01-12T16:03:33.904Z,28.37
2019-01-12T16:06:03.208Z,21.67
2019-01-12T16:08:32.515Z,26.33
2019-01-12T16:11:01.861Z,25.53
2019-01-12T16:13:31.901Z,19.70
2019-01-12T16:16:01.204Z,22.63
2019-01-12T16:18:30.754Z,18.47
2019-01-12T16:21:00.699Z,26.07
2019-01-12T16:23:30.063Z,21.77
2019-01-12T16:25:59.566Z,19.77
2019-01-12T16:28:28.876Z,24.23
2019-01-12T16:30:58.307Z,25.33
2019-01-12T16:33:27.826Z,27.43
2019-01-12T16:35:57.197Z,21.73
2019-01-12T16:38:27.141Z,24.52
2019-01-12T16:40:56.723Z,27.47
2019-01-12T16:43:26.594Z,26.10
2019-01-12T16:45:56.632Z,27.67
2019-01-12T16:48:25.947Z,26.97
2019-01-12T16:50:55.261Z,28.27
2019-01-12T16:53:25.342Z,26.40
2019-01-12T16:55:54.716Z,26.90
2019-01-12T16:58:30.195Z,25.37
2019-01-12T17:00:55.007Z,22.63
2019-01-12T17:03:24.547Z,25.50
2019-01-12T17:05:54.398Z,24.60
2019-01-12T17:08:23.760Z,22.07
2019-01-12T17:10:53.427Z,22.93
2019-01-12T17:13:22.816Z,26.30
2019-01-12T17:15:52.776Z,22.25
2019-01-12T17:18:22.067Z,22.30
2019-01-12T17:20:51.439Z,19.60
2019-01-12T17:23:20.978Z,23.90
2019-01-12T17:25:50.578Z,22.80
2019-01-12T17:28:22.728Z,25.23
2019-01-12T17:30:52.248Z,23.07
2019-01-12T17:33:21.820Z,16.30
2019-01-12T17:35:51.415Z,24.97
2019-01-12T17:38:21.772Z,22.07
2019-01-12T17:40:51.160Z,16.83
2019-01-12T17:43:20.670Z,18.80
2019-01-12T17:45:50.133Z,23.20
2019-01-12T17:48:19.643Z,23.23
2019-01-12T17:50:48.956Z,24.77
2019-01-12T17:53:18.288Z,23.17
2019-01-12T17:55:47.982Z,24.53
2019-01-12T17:58:17.324Z,23.80
2019-01-12T18:00:50.398Z,23.10
2019-01-12T18:03:19.738Z,21.37
2019-01-12T18:05:49.313Z,25.80
2019-01-12T18:08:18.747Z,24.97
2019-01-12T18:10:48.135Z,23.13
2019-01-12T18:13:17.653Z,24.10
2019-01-12T18:15:47.139Z,25.77
2019-01-12T18:18:16.450Z,23.53
2019-01-12T18:20:45.774Z,23.63
2019-01-12T18:23:17.578Z,23.05
2019-01-12T18:25:47.077Z,22.87
2019-01-12T18:28:17.037Z,24.43
2019-01-12T18:30:46.394Z,19.20
2019-01-12T18:33:15.765Z,23.10
2019-01-12T18:35:46.783Z,19.03
2019-01-12T18:38:16.174Z,23.30
2019-01-12T18:40:47.031Z,25.20
2019-01-12T18:43:16.881Z,24.57
2019-01-12T18:45:46.191Z,24.80
2019-01-12T18:48:15.624Z,24.63
2019-01-12T18:50:45.069Z,25.30
2019-01-12T18:53:14.416Z,25.90
2019-01-12T18:55:43.711Z,25.57
2019-01-12T18:58:13.022Z,26.17
2019-01-12T19:00:42.579Z,27.23
2019-01-12T19:03:11.958Z,29.40
2019-01-12T19:05:41.284Z,27.47
2019-01-12T19:08:10.683Z,26.50
2019-01-12T19:10:40.158Z,29.63
2019-01-12T19:13:09.468Z,29.80
2019-01-12T19:15:39.013Z,29.43
2019-01-12T19:18:08.467Z,29.30
2019-01-12T19:20:38.435Z,28.62
2019-01-12T19:23:07.854Z,27.37
2019-01-12T19:25:37.803Z,27.27
2019-01-12T19:28:07.718Z,27.07
2019-01-12T19:30:37.424Z,29.63
2019-01-12T19:33:06.862Z,28.33
2019-01-12T19:35:36.378Z,27.87
2019-01-12T19:38:08.594Z,27.73
2019-01-12T19:40:38.576Z,27.85
2019-01-12T19:43:09.464Z,27.73
2019-01-12T19:45:38.766Z,28.07
2019-01-12T19:48:08.849Z,28.95
2019-01-12T19:50:38.954Z,27.87
2019-01-12T19:53:08.972Z,24.18
2019-01-12T19:55:38.376Z,28.47
2019-01-12T19:58:07.715Z,29.13
2019-01-12T20:00:37.328Z,29.43
2019-01-12T20:03:06.760Z,27.97
2019-01-12T20:05:36.257Z,29.10
2019-01-12T20:08:05.683Z,25.60
2019-01-12T20:10:35.139Z,25.57
2019-01-12T20:13:04.599Z,26.67
2019-01-12T20:15:34.151Z,29.43
2019-01-12T20:18:03.784Z,26.67
2019-01-12T20:20:33.250Z,27.75
2019-01-12T20:23:03.193Z,29.92
2019-01-12T20:25:32.545Z,26.20
2019-01-12T20:28:01.926Z,27.60
2019-01-12T20:30:43.467Z,23.93
2019-01-12T20:33:43.607Z,27.83
2019-01-12T20:36:40.206Z,26.97
2019-01-12T20:39:14.314Z,27.70
2019-01-12T20:44:36.299Z,28.53
2019-01-12T20:47:14.957Z,26.60
2019-01-12T20:49:47.599Z,27.33
2019-01-12T20:52:20.722Z,26.82
2019-01-12T20:54:53.922Z,26.90
2019-01-12T20:57:32.405Z,26.33
2019-01-12T21:00:22.355Z,27.62
2019-01-12T21:03:21.329Z,26.93
2019-01-12T21:05:54.054Z,27.90
2019-01-12T21:08:30.491Z,27.52
2019-01-12T21:11:23.787Z,25.77
2019-01-12T21:14:14.486Z,26.33
2019-01-12T21:16:44.060Z,27.25
2019-01-12T21:19:13.931Z,28.38
2019-01-12T21:21:44.038Z,29.42
2019-01-12T21:24:13.929Z,28.20
2019-01-12T21:26:43.967Z,28.00
2019-01-12T21:29:13.944Z,27.48
2019-01-12T21:31:43.993Z,26.73
2019-01-12T21:34:13.342Z,28.40
2019-01-12T21:36:43.452Z,26.75
2019-01-12T21:39:13.354Z,27.22
2019-01-12T21:41:43.482Z,25.40
2019-01-12T21:44:13.067Z,28.30
2019-01-12T21:46:42.366Z,27.58
2019-01-12T21:49:12.104Z,28.27
2019-01-12T21:51:42.071Z,27.27
2019-01-12T21:54:11.732Z,26.67
2019-01-12T21:56:41.728Z,27.60
2019-01-12T21:59:11.904Z,26.27
2019-01-12T22:01:41.372Z,29.57
2019-01-12T22:04:10.673Z,25.63
2019-01-12T22:06:40.051Z,28.10
2019-01-12T22:09:10.336Z,26.42
2019-01-12T22:11:40.170Z,25.32
2019-01-12T22:14:10.187Z,25.12
2019-01-12T22:16:40.202Z,26.42
2019-01-12T22:19:09.522Z,26.60
2019-01-12T22:21:39.085Z,25.23
2019-01-12T22:24:09.072Z,24.20
2019-01-12T22:26:38.555Z,25.97
2019-01-12T22:29:08.501Z,24.05
2019-01-12T22:31:37.923Z,23.63
2019-01-12T22:34:07.329Z,22.50
2019-01-12T22:36:37.583Z,24.60
2019-01-12T22:39:08.010Z,22.42
2019-01-12T22:41:37.912Z,22.48
2019-01-12T22:44:07.352Z,21.47
2019-01-12T22:46:37.311Z,22.17
2019-01-12T22:49:08.523Z,22.50
2019-01-12T22:51:38.142Z,23.05
2019-01-12T22:54:07.554Z,22.17
2019-01-12T22:56:36.940Z,20.73
2019-01-12T22:59:07.055Z,20.60
2019-01-12T23:01:40.643Z,20.57
2019-01-12T23:04:10.773Z,20.88
2019-01-12T23:06:41.421Z,17.50
2019-01-12T23:09:11.403Z,17.90
2019-01-12T23:11:42.466Z,19.87
2019-01-12T23:14:12.368Z,20.48
2019-01-12T23:16:42.290Z,18.50
2019-01-12T23:19:12.356Z,15.55
2019-01-12T23:21:42.395Z,16.23
2019-01-12T23:24:11.746Z,11.90
2019-01-12T23:26:41.698Z,9.08
2019-01-12T23:29:11.801Z,11.85
2019-01-12T23:31:42.404Z,7.67
2019-01-12T23:34:12.341Z,7.15
2019-01-12T23:36:42.500Z,8.75
2019-01-12T23:39:12.019Z,8.13
2019-01-12T23:41:42.263Z,8.45
2019-01-12T23:44:14.983Z,9.33
2019-01-12T23:46:45.093Z,9.95
2019-01-12T23:49:15.161Z,8.23
2019-01-12T23:51:45.082Z,6.17
2019-01-12T23:54:14.604Z,7.90
2019-01-12T23:56:43.908Z,7.03
2019-01-12T23:59:14.048Z,7.47
